Time;durP1;ratioP1;P1;durP2;ratioP2;P2;SDS_P1;SDS_P2;PMS_P1;PMS_P2;Temp;Humidity;BMP_temperature;BMP_pressure;BME280_temperature;BME280_humidity;BME280_pressure;Samples;Min_cycle;Max_cycle;Signal;HPM_P1;HPM_P2
2022/09/26 00:00:18;;;;;;;6.849999;5.75;;;;;;;11.41;91.27539;94786.3;;;;
2022/09/26 00:01:19;;;;;;;6.849999;5.75;;;;;;;11.41;91.27539;94786.3;;;;
2022/09/26 00:02:21;;;;;;;6.849999;5.75;;;;;;;11.41;91.27539;94786.3;;;;
2022/09/26 00:03:22;;;;;;;6.849999;5.75;;;;;;;11.41;91.27539;94786.3;;;;
2022/09/26 00:04:23;;;;;;;6.849999;5.75;;;;;;;11.41;91.27539;94786.3;;;;
2022/09/26 00:05:26;;;;;;;6.849999;5.75;;;;;;;11.41;91.27539;94786.3;;;;
2022/09/26 00:06:26;;;;;;;6.849999;5.75;;;;;;;11.41;91.27539;94786.3;;;;
2022/09/26 00:07:27;;;;;;;6.849999;5.75;;;;;;;11.41;91.27539;94786.3;;;;
2022/09/26 00:08:27;;;;;;;6.849999;5.75;;;;;;;11.41;91.27539;94786.3;;;;
2022/09/26 00:09:29;;;;;;;6.849999;5.75;;;;;;;11.41;91.27539;94786.3;;;;
2022/09/26 00:10:29;;;;;;;6.95;6.15;;;;;;;11.4;91.53906;94784.27;;;;
2022/09/26 00:11:30;;;;;;;6.95;6.15;;;;;;;11.4;91.53906;94784.27;;;;
2022/09/26 00:12:32;;;;;;;6.95;6.15;;;;;;;11.4;91.53906;94784.27;;;;
2022/09/26 00:13:33;;;;;;;6.95;6.15;;;;;;;11.4;91.53906;94784.27;;;;
2022/09/26 00:14:36;;;;;;;6.95;6.15;;;;;;;11.4;91.53906;94784.27;;;;
2022/09/26 00:15:37;;;;;;;6.95;6.15;;;;;;;11.4;91.53906;94784.27;;;;
2022/09/26 00:16:37;;;;;;;6.95;6.15;;;;;;;11.4;91.53906;94784.27;;;;
2022/09/26 00:17:38;;;;;;;6.95;6.15;;;;;;;11.4;91.53906;94784.27;;;;
2022/09/26 00:18:39;;;;;;;6.95;6.15;;;;;;;11.4;91.53906;94784.27;;;;
2022/09/26 00:19:40;;;;;;;6.95;6.15;;;;;;;11.4;91.53906;94784.27;;;;
2022/09/26 00:20:40;;;;;;;7.55;6.5;;;;;;;11.45;91.80859;94777.67;;;;
2022/09/26 00:21:41;;;;;;;7.55;6.5;;;;;;;11.45;91.80859;94777.67;;;;
2022/09/26 00:22:41;;;;;;;7.55;6.5;;;;;;;11.45;91.80859;94777.67;;;;
2022/09/26 00:23:42;;;;;;;7.55;6.5;;;;;;;11.45;91.80859;94777.67;;;;
2022/09/26 00:24:43;;;;;;;7.55;6.5;;;;;;;11.45;91.80859;94777.67;;;;
2022/09/26 00:25:44;;;;;;;7.55;6.5;;;;;;;11.45;91.80859;94777.67;;;;
2022/09/26 00:26:45;;;;;;;7.55;6.5;;;;;;;11.45;91.80859;94777.67;;;;
2022/09/26 00:27:45;;;;;;;7.55;6.5;;;;;;;11.45;91.80859;94777.67;;;;
2022/09/26 00:28:46;;;;;;;7.55;6.5;;;;;;;11.45;91.80859;94777.67;;;;
2022/09/26 00:29:46;;;;;;;7.55;6.5;;;;;;;11.45;91.80859;94777.67;;;;
2022/09/26 00:30:47;;;;;;;7.55;6.5;;;;;;;11.45;91.80859;94777.67;;;;
2022/09/26 00:31:48;;;;;;;7.4;6.35;;;;;;;11.43;91.75098;94770.47;;;;
2022/09/26 00:32:48;;;;;;;7.4;6.35;;;;;;;11.43;91.75098;94770.47;;;;
2022/09/26 00:33:48;;;;;;;7.4;6.35;;;;;;;11.43;91.75098;94770.47;;;;
2022/09/26 00:34:49;;;;;;;7.4;6.35;;;;;;;11.43;91.75098;94770.47;;;;
2022/09/26 00:35:50;;;;;;;7.4;6.35;;;;;;;11.43;91.75098;94770.47;;;;
2022/09/26 00:36:51;;;;;;;7.4;6.35;;;;;;;11.43;91.75098;94770.47;;;;
2022/09/26 00:37:52;;;;;;;7.4;6.35;;;;;;;11.43;91.75098;94770.47;;;;
2022/09/26 00:38:52;;;;;;;7.4;6.35;;;;;;;11.43;91.75098;94770.47;;;;
2022/09/26 00:39:53;;;;;;;7.4;6.35;;;;;;;11.43;91.75098;94770.47;;;;
2022/09/26 00:40:53;;;;;;;7.4;6.35;;;;;;;11.43;91.75098;94770.47;;;;
2022/09/26 00:41:54;;;;;;;7.449999;6.45;;;;;;;11.47;92.00391;94762.47;;;;
2022/09/26 00:42:54;;;;;;;7.449999;6.45;;;;;;;11.47;92.00391;94762.47;;;;
2022/09/26 00:43:55;;;;;;;7.449999;6.45;;;;;;;11.47;92.00391;94762.47;;;;
2022/09/26 00:44:55;;;;;;;7.449999;6.45;;;;;;;11.47;92.00391;94762.47;;;;
2022/09/26 00:45:56;;;;;;;7.449999;6.45;;;;;;;11.47;92.00391;94762.47;;;;
2022/09/26 00:47:00;;;;;;;7.449999;6.45;;;;;;;11.47;92.00391;94762.47;;;;
2022/09/26 00:48:01;;;;;;;7.449999;6.45;;;;;;;11.47;92.00391;94762.47;;;;
2022/09/26 00:49:05;;;;;;;7.449999;6.45;;;;;;;11.47;92.00391;94762.47;;;;
2022/09/26 00:50:26;;;;;;;7.449999;6.45;;;;;;;11.47;92.00391;94762.47;;;;
2022/09/26 00:51:31;;;;;;;7.449999;6.45;;;;;;;11.47;92.00391;94762.47;;;;
2022/09/26 00:52:34;;;;;;;7.2;6.449999;;;;;;;11.42;91.97461;94763.17;;;;
2022/09/26 00:53:39;;;;;;;7.2;6.449999;;;;;;;11.42;91.97461;94763.17;;;;
2022/09/26 00:54:44;;;;;;;7.2;6.449999;;;;;;;11.42;91.97461;94763.17;;;;
2022/09/26 00:55:49;;;;;;;7.2;6.449999;;;;;;;11.42;91.97461;94763.17;;;;
2022/09/26 00:56:55;;;;;;;7.2;6.449999;;;;;;;11.42;91.97461;94763.17;;;;
2022/09/26 00:58:00;;;;;;;7.2;6.449999;;;;;;;11.42;91.97461;94763.17;;;;
2022/09/26 00:59:06;;;;;;;7.2;6.449999;;;;;;;11.42;91.97461;94763.17;;;;
2022/09/26 01:00:13;;;;;;;7.2;6.449999;;;;;;;11.42;91.97461;94763.17;;;;
2022/09/26 01:01:14;;;;;;;7.2;6.449999;;;;;;;11.42;91.97461;94763.17;;;;
2022/09/26 01:02:16;;;;;;;7.2;6.449999;;;;;;;11.42;91.97461;94763.17;;;;
2022/09/26 01:03:17;;;;;;;7.35;6.599999;;;;;;;11.45;92.24609;94746.01;;;;
2022/09/26 01:04:19;;;;;;;7.35;6.599999;;;;;;;11.45;92.24609;94746.01;;;;
2022/09/26 01:05:21;;;;;;;7.35;6.599999;;;;;;;11.45;92.24609;94746.01;;;;
2022/09/26 01:06:23;;;;;;;7.35;6.599999;;;;;;;11.45;92.24609;94746.01;;;;
2022/09/26 01:07:23;;;;;;;7.35;6.599999;;;;;;;11.45;92.24609;94746.01;;;;
2022/09/26 01:08:26;;;;;;;7.35;6.599999;;;;;;;11.45;92.24609;94746.01;;;;
2022/09/26 01:09:32;;;;;;;7.35;6.599999;;;;;;;11.45;92.24609;94746.01;;;;
2022/09/26 01:10:34;;;;;;;7.35;6.599999;;;;;;;11.45;92.24609;94746.01;;;;
2022/09/26 01:11:36;;;;;;;7.35;6.599999;;;;;;;11.45;92.24609;94746.01;;;;
2022/09/26 01:12:38;;;;;;;7.35;6.599999;;;;;;;11.45;92.24609;94746.01;;;;
2022/09/26 01:13:39;;;;;;;6;5.4;;;;;;;11.4;92.19336;94734.39;;;;
2022/09/26 01:14:41;;;;;;;6;5.4;;;;;;;11.4;92.19336;94734.39;;;;
2022/09/26 01:15:43;;;;;;;6;5.4;;;;;;;11.4;92.19336;94734.39;;;;
2022/09/26 01:16:44;;;;;;;6;5.4;;;;;;;11.4;92.19336;94734.39;;;;
2022/09/26 01:17:48;;;;;;;6;5.4;;;;;;;11.4;92.19336;94734.39;;;;
2022/09/26 01:18:50;;;;;;;6;5.4;;;;;;;11.4;92.19336;94734.39;;;;
2022/09/26 01:19:50;;;;;;;6;5.4;;;;;;;11.4;92.19336;94734.39;;;;
2022/09/26 01:21:06;;;;;;;6;5.4;;;;;;;11.4;92.19336;94734.39;;;;
2022/09/26 01:22:25;;;;;;;6;5.4;;;;;;;11.4;92.19336;94734.39;;;;
2022/09/26 01:23:44;;;;;;;6;5.4;;;;;;;11.4;92.19336;94734.39;;;;
2022/09/26 01:25:29;;;;;;;5.45;4.95;;;;;;;11.41;92.43359;94739.98;;;;
2022/09/26 01:26:50;;;;;;;5.45;4.95;;;;;;;11.41;92.43359;94739.98;;;;
2022/09/26 01:28:12;;;;;;;5.45;4.95;;;;;;;11.41;92.43359;94739.98;;;;
2022/09/26 01:29:33;;;;;;;5.45;4.95;;;;;;;11.41;92.43359;94739.98;;;;
2022/09/26 01:31:03;;;;;;;5.45;4.95;;;;;;;11.41;92.43359;94739.98;;;;
2022/09/26 01:32:53;;;;;;;5.45;4.95;;;;;;;11.41;92.43359;94739.98;;;;
2022/09/26 01:34:11;;;;;;;5.45;4.95;;;;;;;11.41;92.43359;94739.98;;;;
2022/09/26 01:35:20;;;;;;;5.5;4.85;;;;;;;11.32;92.32813;94733;;;;
2022/09/26 01:36:55;;;;;;;5.5;4.85;;;;;;;11.32;92.32813;94733;;;;
2022/09/26 01:38:03;;;;;;;5.5;4.85;;;;;;;11.32;92.32813;94733;;;;
2022/09/26 01:39:11;;;;;;;5.5;4.85;;;;;;;11.32;92.32813;94733;;;;
2022/09/26 01:40:26;;;;;;;5.5;4.85;;;;;;;11.32;92.32813;94733;;;;
2022/09/26 01:41:34;;;;;;;5.5;4.85;;;;;;;11.32;92.32813;94733;;;;
2022/09/26 01:42:48;;;;;;;5.5;4.85;;;;;;;11.32;92.32813;94733;;;;
2022/09/26 01:44:03;;;;;;;5.5;4.85;;;;;;;11.32;92.32813;94733;;;;
2022/09/26 01:45:16;;;;;;;5.5;4.85;;;;;;;11.32;92.32813;94733;;;;
2022/09/26 01:46:18;;;;;;;7.550001;5.400001;;;;;;;11.31;92.63672;94735.27;;;;
2022/09/26 01:47:31;;;;;;;7.550001;5.400001;;;;;;;11.31;92.63672;94735.27;;;;
2022/09/26 01:48:40;;;;;;;7.550001;5.400001;;;;;;;11.31;92.63672;94735.27;;;;
2022/09/26 01:49:43;;;;;;;7.550001;5.400001;;;;;;;11.31;92.63672;94735.27;;;;
2022/09/26 01:50:51;;;;;;;7.550001;5.400001;;;;;;;11.31;92.63672;94735.27;;;;
2022/09/26 01:51:56;;;;;;;7.550001;5.400001;;;;;;;11.31;92.63672;94735.27;;;;
2022/09/26 01:53:03;;;;;;;7.550001;5.400001;;;;;;;11.31;92.63672;94735.27;;;;
2022/09/26 01:54:09;;;;;;;7.550001;5.400001;;;;;;;11.31;92.63672;94735.27;;;;
2022/09/26 01:55:14;;;;;;;7.550001;5.400001;;;;;;;11.31;92.63672;94735.27;;;;
2022/09/26 01:56:19;;;;;;;6.749999;5.2;;;;;;;11.27;92.56445;94724.03;;;;
2022/09/26 01:57:23;;;;;;;6.749999;5.2;;;;;;;11.27;92.56445;94724.03;;;;
2022/09/26 01:58:29;;;;;;;6.749999;5.2;;;;;;;11.27;92.56445;94724.03;;;;
2022/09/26 01:59:34;;;;;;;6.749999;5.2;;;;;;;11.27;92.56445;94724.03;;;;
2022/09/26 02:00:40;;;;;;;6.749999;5.2;;;;;;;11.27;92.56445;94724.03;;;;
2022/09/26 02:01:44;;;;;;;6.749999;5.2;;;;;;;11.27;92.56445;94724.03;;;;
2022/09/26 02:02:47;;;;;;;6.749999;5.2;;;;;;;11.27;92.56445;94724.03;;;;
2022/09/26 02:03:49;;;;;;;6.749999;5.2;;;;;;;11.27;92.56445;94724.03;;;;
2022/09/26 02:04:53;;;;;;;6.749999;5.2;;;;;;;11.27;92.56445;94724.03;;;;
2022/09/26 02:05:59;;;;;;;6.749999;5.2;;;;;;;11.27;92.56445;94724.03;;;;
2022/09/26 02:07:06;;;;;;;6.299999;5.400001;;;;;;;11.23;92.78125;94728.05;;;;
2022/09/26 02:08:12;;;;;;;6.299999;5.400001;;;;;;;11.23;92.78125;94728.05;;;;
2022/09/26 02:09:16;;;;;;;6.299999;5.400001;;;;;;;11.23;92.78125;94728.05;;;;
2022/09/26 02:10:23;;;;;;;6.299999;5.400001;;;;;;;11.23;92.78125;94728.05;;;;
2022/09/26 02:11:28;;;;;;;6.299999;5.400001;;;;;;;11.23;92.78125;94728.05;;;;
2022/09/26 02:12:31;;;;;;;6.299999;5.400001;;;;;;;11.23;92.78125;94728.05;;;;
2022/09/26 02:13:34;;;;;;;6.299999;5.400001;;;;;;;11.23;92.78125;94728.05;;;;
2022/09/26 02:14:41;;;;;;;6.299999;5.400001;;;;;;;11.23;92.78125;94728.05;;;;
2022/09/26 02:15:46;;;;;;;6.299999;5.400001;;;;;;;11.23;92.78125;94728.05;;;;
2022/09/26 02:16:52;;;;;;;6.299999;5.400001;;;;;;;11.23;92.78125;94728.05;;;;
2022/09/26 02:17:57;;;;;;;7.45;6.099999;;;;;;;11.22;92.7666;94710.68;;;;
2022/09/26 02:19:05;;;;;;;7.45;6.099999;;;;;;;11.22;92.7666;94710.68;;;;
2022/09/26 02:20:13;;;;;;;7.45;6.099999;;;;;;;11.22;92.7666;94710.68;;;;
2022/09/26 02:21:18;;;;;;;7.45;6.099999;;;;;;;11.22;92.7666;94710.68;;;;
2022/09/26 02:22:21;;;;;;;7.45;6.099999;;;;;;;11.22;92.7666;94710.68;;;;
2022/09/26 02:23:22;;;;;;;7.45;6.099999;;;;;;;11.22;92.7666;94710.68;;;;
2022/09/26 02:24:23;;;;;;;7.45;6.099999;;;;;;;11.22;92.7666;94710.68;;;;
2022/09/26 02:25:24;;;;;;;7.45;6.099999;;;;;;;11.22;92.7666;94710.68;;;;
2022/09/26 02:26:25;;;;;;;7.45;6.099999;;;;;;;11.22;92.7666;94710.68;;;;
2022/09/26 02:27:26;;;;;;;7.45;6.099999;;;;;;;11.22;92.7666;94710.68;;;;
2022/09/26 02:28:27;;;;;;;8.049999;6.7;;;;;;;11.17;92.93945;94716.67;;;;
2022/09/26 02:29:27;;;;;;;8.049999;6.7;;;;;;;11.17;92.93945;94716.67;;;;
2022/09/26 02:30:28;;;;;;;8.049999;6.7;;;;;;;11.17;92.93945;94716.67;;;;
2022/09/26 02:31:29;;;;;;;8.049999;6.7;;;;;;;11.17;92.93945;94716.67;;;;
2022/09/26 02:32:36;;;;;;;8.049999;6.7;;;;;;;11.17;92.93945;94716.67;;;;
2022/09/26 02:33:36;;;;;;;8.049999;6.7;;;;;;;11.17;92.93945;94716.67;;;;
2022/09/26 02:34:37;;;;;;;8.049999;6.7;;;;;;;11.17;92.93945;94716.67;;;;
2022/09/26 02:35:56;;;;;;;8.049999;6.7;;;;;;;11.17;92.93945;94716.67;;;;
2022/09/26 02:36:56;;;;;;;8.049999;6.7;;;;;;;11.17;92.93945;94716.67;;;;
2022/09/26 02:37:58;;;;;;;8.049999;6.7;;;;;;;11.17;92.93945;94716.67;;;;
2022/09/26 02:38:59;;;;;;;8.049999;6.7;;;;;;;11.17;92.93945;94716.67;;;;
2022/09/26 02:40:00;;;;;;;9.149999;7.6;;;;;;;11.18;93.10352;94704.13;;;;
2022/09/26 02:41:01;;;;;;;9.149999;7.6;;;;;;;11.18;93.10352;94704.13;;;;
2022/09/26 02:42:12;;;;;;;9.149999;7.6;;;;;;;11.18;93.10352;94704.13;;;;
2022/09/26 02:43:19;;;;;;;9.149999;7.6;;;;;;;11.18;93.10352;94704.13;;;;
2022/09/26 02:44:42;;;;;;;9.149999;7.6;;;;;;;11.18;93.10352;94704.13;;;;
2022/09/26 02:46:15;;;;;;;9.149999;7.6;;;;;;;11.18;93.10352;94704.13;;;;
2022/09/26 02:47:32;;;;;;;9.149999;7.6;;;;;;;11.18;93.10352;94704.13;;;;
2022/09/26 02:49:06;;;;;;;9.149999;7.6;;;;;;;11.18;93.10352;94704.13;;;;
2022/09/26 02:50:19;;;;;;;11.1;8.799999;;;;;;;11.1;93;94697.48;;;;
2022/09/26 02:51:34;;;;;;;11.1;8.799999;;;;;;;11.1;93;94697.48;;;;
2022/09/26 02:52:49;;;;;;;11.1;8.799999;;;;;;;11.1;93;94697.48;;;;
2022/09/26 02:53:58;;;;;;;11.1;8.799999;;;;;;;11.1;93;94697.48;;;;
2022/09/26 02:55:14;;;;;;;11.1;8.799999;;;;;;;11.1;93;94697.48;;;;
2022/09/26 02:56:22;;;;;;;11.1;8.799999;;;;;;;11.1;93;94697.48;;;;
2022/09/26 02:57:31;;;;;;;11.1;8.799999;;;;;;;11.1;93;94697.48;;;;
2022/09/26 02:58:42;;;;;;;11.1;8.799999;;;;;;;11.1;93;94697.48;;;;
2022/09/26 02:59:53;;;;;;;11.1;8.799999;;;;;;;11.1;93;94697.48;;;;
2022/09/26 03:01:01;;;;;;;10.65;9.25;;;;;;;11.02;93.12207;94701.37;;;;
2022/09/26 03:02:08;;;;;;;10.65;9.25;;;;;;;11.02;93.12207;94701.37;;;;
2022/09/26 03:03:13;;;;;;;10.65;9.25;;;;;;;11.02;93.12207;94701.37;;;;
2022/09/26 03:04:21;;;;;;;10.65;9.25;;;;;;;11.02;93.12207;94701.37;;;;
2022/09/26 03:05:30;;;;;;;10.65;9.25;;;;;;;11.02;93.12207;94701.37;;;;
2022/09/26 03:06:34;;;;;;;10.65;9.25;;;;;;;11.02;93.12207;94701.37;;;;
2022/09/26 03:07:38;;;;;;;10.65;9.25;;;;;;;11.02;93.12207;94701.37;;;;
2022/09/26 03:08:44;;;;;;;10.65;9.25;;;;;;;11.02;93.12207;94701.37;;;;
2022/09/26 03:09:47;;;;;;;10.65;9.25;;;;;;;11.02;93.12207;94701.37;;;;
2022/09/26 03:10:50;;;;;;;10.65;9.25;;;;;;;11.02;93.12207;94701.37;;;;
2022/09/26 03:11:52;;;;;;;14.15;10.65;;;;;;;10.84;92.96582;94707.56;;;;
2022/09/26 03:12:54;;;;;;;14.15;10.65;;;;;;;10.84;92.96582;94707.56;;;;
2022/09/26 03:14:00;;;;;;;14.15;10.65;;;;;;;10.84;92.96582;94707.56;;;;
2022/09/26 03:15:02;;;;;;;14.15;10.65;;;;;;;10.84;92.96582;94707.56;;;;
2022/09/26 03:16:06;;;;;;;14.15;10.65;;;;;;;10.84;92.96582;94707.56;;;;
2022/09/26 03:17:08;;;;;;;14.15;10.65;;;;;;;10.84;92.96582;94707.56;;;;
2022/09/26 03:18:09;;;;;;;14.15;10.65;;;;;;;10.84;92.96582;94707.56;;;;
2022/09/26 03:19:14;;;;;;;14.15;10.65;;;;;;;10.84;92.96582;94707.56;;;;
2022/09/26 03:20:23;;;;;;;14.15;10.65;;;;;;;10.84;92.96582;94707.56;;;;
2022/09/26 03:21:24;;;;;;;14.15;10.65;;;;;;;10.84;92.96582;94707.56;;;;
2022/09/26 03:22:26;;;;;;;15.85;11.35;;;;;;;10.78;93.2627;94698.01;;;;
2022/09/26 03:23:26;;;;;;;15.85;11.35;;;;;;;10.78;93.2627;94698.01;;;;
2022/09/26 03:24:27;;;;;;;15.85;11.35;;;;;;;10.78;93.2627;94698.01;;;;
2022/09/26 03:25:28;;;;;;;15.85;11.35;;;;;;;10.78;93.2627;94698.01;;;;
2022/09/26 03:26:29;;;;;;;15.85;11.35;;;;;;;10.78;93.2627;94698.01;;;;
2022/09/26 03:27:32;;;;;;;15.85;11.35;;;;;;;10.78;93.2627;94698.01;;;;
2022/09/26 03:28:35;;;;;;;15.85;11.35;;;;;;;10.78;93.2627;94698.01;;;;
2022/09/26 03:29:37;;;;;;;15.85;11.35;;;;;;;10.78;93.2627;94698.01;;;;
2022/09/26 03:30:38;;;;;;;15.85;11.35;;;;;;;10.78;93.2627;94698.01;;;;
2022/09/26 03:31:39;;;;;;;15.85;11.35;;;;;;;10.78;93.2627;94698.01;;;;
2022/09/26 03:32:39;;;;;;;14.3;11.8;;;;;;;10.85;93.52441;94691.57;;;;
2022/09/26 03:33:40;;;;;;;14.3;11.8;;;;;;;10.85;93.52441;94691.57;;;;
2022/09/26 03:34:40;;;;;;;14.3;11.8;;;;;;;10.85;93.52441;94691.57;;;;
2022/09/26 03:35:41;;;;;;;14.3;11.8;;;;;;;10.85;93.52441;94691.57;;;;
2022/09/26 03:36:41;;;;;;;14.3;11.8;;;;;;;10.85;93.52441;94691.57;;;;
2022/09/26 03:37:42;;;;;;;14.3;11.8;;;;;;;10.85;93.52441;94691.57;;;;
2022/09/26 03:38:43;;;;;;;14.3;11.8;;;;;;;10.85;93.52441;94691.57;;;;
2022/09/26 03:39:43;;;;;;;14.3;11.8;;;;;;;10.85;93.52441;94691.57;;;;
2022/09/26 03:40:45;;;;;;;14.3;11.8;;;;;;;10.85;93.52441;94691.57;;;;
2022/09/26 03:41:45;;;;;;;14.3;11.8;;;;;;;10.85;93.52441;94691.57;;;;
2022/09/26 03:42:46;;;;;;;14.3;11.8;;;;;;;10.85;93.52441;94691.57;;;;
2022/09/26 03:43:48;;;;;;;15.8;12.45;;;;;;;10.89;93.45996;94682.54;;;;
2022/09/26 03:44:48;;;;;;;15.8;12.45;;;;;;;10.89;93.45996;94682.54;;;;
2022/09/26 03:45:49;;;;;;;15.8;12.45;;;;;;;10.89;93.45996;94682.54;;;;
2022/09/26 03:46:50;;;;;;;15.8;12.45;;;;;;;10.89;93.45996;94682.54;;;;
2022/09/26 03:47:51;;;;;;;15.8;12.45;;;;;;;10.89;93.45996;94682.54;;;;
2022/09/26 03:48:55;;;;;;;15.8;12.45;;;;;;;10.89;93.45996;94682.54;;;;
2022/09/26 03:49:55;;;;;;;15.8;12.45;;;;;;;10.89;93.45996;94682.54;;;;
2022/09/26 03:50:56;;;;;;;15.8;12.45;;;;;;;10.89;93.45996;94682.54;;;;
2022/09/26 03:52:01;;;;;;;15.8;12.45;;;;;;;10.89;93.45996;94682.54;;;;
2022/09/26 03:53:02;;;;;;;15.8;12.45;;;;;;;10.89;93.45996;94682.54;;;;
2022/09/26 03:54:02;;;;;;;15.8;12.45;;;;;;;10.89;93.45996;94682.54;;;;
2022/09/26 03:55:03;;;;;;;15.8;12.45;;;;;;;10.89;93.45996;94682.54;;;;
2022/09/26 03:56:04;;;;;;;15.8;12.45;;;;;;;10.89;93.45996;94682.54;;;;
2022/09/26 03:57:08;;;;;;;15.8;12.45;;;;;;;10.89;93.45996;94682.54;;;;
2022/09/26 03:58:10;;;;;;;15.8;12.45;;;;;;;10.89;93.45996;94682.54;;;;
2022/09/26 03:59:10;;;;;;;15.8;12.45;;;;;;;10.89;93.45996;94682.54;;;;
2022/09/26 04:00:11;;;;;;;15.8;12.45;;;;;;;10.89;93.45996;94682.54;;;;
2022/09/26 04:01:12;;;;;;;15.8;12.45;;;;;;;10.89;93.45996;94682.54;;;;
2022/09/26 04:02:15;;;;;;;15.8;12.45;;;;;;;10.89;93.45996;94682.54;;;;
2022/09/26 04:03:15;;;;;;;15.8;12.45;;;;;;;10.89;93.45996;94682.54;;;;
2022/09/26 04:04:16;;;;;;;15.8;12.45;;;;;;;10.89;93.45996;94682.54;;;;
2022/09/26 04:05:16;;;;;;;13.9;10.45;;;;;;;11.03;93.81934;94669.51;;;;
2022/09/26 04:06:18;;;;;;;13.9;10.45;;;;;;;11.03;93.81934;94669.51;;;;
2022/09/26 04:07:19;;;;;;;13.9;10.45;;;;;;;11.03;93.81934;94669.51;;;;
2022/09/26 04:08:21;;;;;;;13.9;10.45;;;;;;;11.03;93.81934;94669.51;;;;
2022/09/26 04:09:23;;;;;;;13.9;10.45;;;;;;;11.03;93.81934;94669.51;;;;
2022/09/26 04:10:24;;;;;;;13.9;10.45;;;;;;;11.03;93.81934;94669.51;;;;
2022/09/26 04:11:24;;;;;;;13.9;10.45;;;;;;;11.03;93.81934;94669.51;;;;
2022/09/26 04:12:25;;;;;;;13.9;10.45;;;;;;;11.03;93.81934;94669.51;;;;
2022/09/26 04:13:26;;;;;;;13.9;10.45;;;;;;;11.03;93.81934;94669.51;;;;
2022/09/26 04:14:26;;;;;;;13.9;10.45;;;;;;;11.03;93.81934;94669.51;;;;
2022/09/26 04:15:28;;;;;;;12.05;9.799999;;;;;;;11.05;93.67383;94655.04;;;;
2022/09/26 04:16:29;;;;;;;12.05;9.799999;;;;;;;11.05;93.67383;94655.04;;;;
2022/09/26 04:17:29;;;;;;;12.05;9.799999;;;;;;;11.05;93.67383;94655.04;;;;
2022/09/26 04:18:30;;;;;;;12.05;9.799999;;;;;;;11.05;93.67383;94655.04;;;;
2022/09/26 04:19:32;;;;;;;12.05;9.799999;;;;;;;11.05;93.67383;94655.04;;;;
2022/09/26 04:20:32;;;;;;;12.05;9.799999;;;;;;;11.05;93.67383;94655.04;;;;
2022/09/26 04:21:34;;;;;;;12.05;9.799999;;;;;;;11.05;93.67383;94655.04;;;;
2022/09/26 04:22:34;;;;;;;12.05;9.799999;;;;;;;11.05;93.67383;94655.04;;;;
2022/09/26 04:23:35;;;;;;;12.05;9.799999;;;;;;;11.05;93.67383;94655.04;;;;
2022/09/26 04:24:38;;;;;;;12.05;9.799999;;;;;;;11.05;93.67383;94655.04;;;;
2022/09/26 04:25:38;;;;;;;12.05;9.799999;;;;;;;11.05;93.67383;94655.04;;;;
2022/09/26 04:26:39;;;;;;;10.85;8.700001;;;;;;;11.09;93.85547;94646.13;;;;
2022/09/26 04:27:40;;;;;;;10.85;8.700001;;;;;;;11.09;93.85547;94646.13;;;;
2022/09/26 04:28:41;;;;;;;10.85;8.700001;;;;;;;11.09;93.85547;94646.13;;;;
2022/09/26 04:29:43;;;;;;;10.85;8.700001;;;;;;;11.09;93.85547;94646.13;;;;
2022/09/26 04:30:43;;;;;;;10.85;8.700001;;;;;;;11.09;93.85547;94646.13;;;;
2022/09/26 04:31:44;;;;;;;10.85;8.700001;;;;;;;11.09;93.85547;94646.13;;;;
2022/09/26 04:32:45;;;;;;;10.85;8.700001;;;;;;;11.09;93.85547;94646.13;;;;
2022/09/26 04:33:45;;;;;;;10.85;8.700001;;;;;;;11.09;93.85547;94646.13;;;;
2022/09/26 04:34:46;;;;;;;10.85;8.700001;;;;;;;11.09;93.85547;94646.13;;;;
2022/09/26 04:35:47;;;;;;;10.85;8.700001;;;;;;;11.09;93.85547;94646.13;;;;
2022/09/26 04:36:50;;;;;;;11.25;9.650001;;;;;;;11.02;93.75391;94639.23;;;;
2022/09/26 04:37:51;;;;;;;11.25;9.650001;;;;;;;11.02;93.75391;94639.23;;;;
2022/09/26 04:38:51;;;;;;;11.25;9.650001;;;;;;;11.02;93.75391;94639.23;;;;
2022/09/26 04:39:52;;;;;;;11.25;9.650001;;;;;;;11.02;93.75391;94639.23;;;;
2022/09/26 04:40:53;;;;;;;11.25;9.650001;;;;;;;11.02;93.75391;94639.23;;;;
2022/09/26 04:41:54;;;;;;;11.25;9.650001;;;;;;;11.02;93.75391;94639.23;;;;
2022/09/26 04:42:54;;;;;;;11.25;9.650001;;;;;;;11.02;93.75391;94639.23;;;;
2022/09/26 04:43:55;;;;;;;11.25;9.650001;;;;;;;11.02;93.75391;94639.23;;;;
2022/09/26 04:44:56;;;;;;;11.25;9.650001;;;;;;;11.02;93.75391;94639.23;;;;
2022/09/26 04:45:57;;;;;;;11.25;9.650001;;;;;;;11.02;93.75391;94639.23;;;;
2022/09/26 04:46:58;;;;;;;11.25;9.650001;;;;;;;11.02;93.75391;94639.23;;;;
2022/09/26 04:47:58;;;;;;;9.749999;8.5;;;;;;;11.04;93.97168;94637.13;;;;
2022/09/26 04:48:59;;;;;;;9.749999;8.5;;;;;;;11.04;93.97168;94637.13;;;;
2022/09/26 04:50:00;;;;;;;9.749999;8.5;;;;;;;11.04;93.97168;94637.13;;;;
2022/09/26 04:51:00;;;;;;;9.749999;8.5;;;;;;;11.04;93.97168;94637.13;;;;
2022/09/26 04:52:04;;;;;;;9.749999;8.5;;;;;;;11.04;93.97168;94637.13;;;;
2022/09/26 04:53:05;;;;;;;9.749999;8.5;;;;;;;11.04;93.97168;94637.13;;;;
2022/09/26 04:54:05;;;;;;;9.749999;8.5;;;;;;;11.04;93.97168;94637.13;;;;
2022/09/26 04:55:06;;;;;;;9.749999;8.5;;;;;;;11.04;93.97168;94637.13;;;;
2022/09/26 04:56:08;;;;;;;9.749999;8.5;;;;;;;11.04;93.97168;94637.13;;;;
2022/09/26 04:57:12;;;;;;;9.749999;8.5;;;;;;;11.04;93.97168;94637.13;;;;
2022/09/26 04:58:12;;;;;;;10.45;8.450002;;;;;;;10.98;93.87402;94639.79;;;;
2022/09/26 04:59:14;;;;;;;10.45;8.450002;;;;;;;10.98;93.87402;94639.79;;;;
2022/09/26 05:00:14;;;;;;;10.45;8.450002;;;;;;;10.98;93.87402;94639.79;;;;
2022/09/26 05:01:15;;;;;;;10.45;8.450002;;;;;;;10.98;93.87402;94639.79;;;;
2022/09/26 05:02:18;;;;;;;10.45;8.450002;;;;;;;10.98;93.87402;94639.79;;;;
2022/09/26 05:03:19;;;;;;;10.45;8.450002;;;;;;;10.98;93.87402;94639.79;;;;
2022/09/26 05:04:21;;;;;;;10.45;8.450002;;;;;;;10.98;93.87402;94639.79;;;;
2022/09/26 05:05:21;;;;;;;10.45;8.450002;;;;;;;10.98;93.87402;94639.79;;;;
2022/09/26 05:06:22;;;;;;;10.45;8.450002;;;;;;;10.98;93.87402;94639.79;;;;
2022/09/26 05:07:22;;;;;;;10.45;8.450002;;;;;;;10.98;93.87402;94639.79;;;;
2022/09/26 05:08:23;;;;;;;10.45;8.450002;;;;;;;10.98;93.87402;94639.79;;;;
2022/09/26 05:09:24;;;;;;;12.35;9.150001;;;;;;;10.99;94.06836;94634.78;;;;
2022/09/26 05:10:25;;;;;;;12.35;9.150001;;;;;;;10.99;94.06836;94634.78;;;;
2022/09/26 05:11:26;;;;;;;12.35;9.150001;;;;;;;10.99;94.06836;94634.78;;;;
2022/09/26 05:12:27;;;;;;;12.35;9.150001;;;;;;;10.99;94.06836;94634.78;;;;
2022/09/26 05:13:27;;;;;;;12.35;9.150001;;;;;;;10.99;94.06836;94634.78;;;;
2022/09/26 05:14:28;;;;;;;12.35;9.150001;;;;;;;10.99;94.06836;94634.78;;;;
2022/09/26 05:15:29;;;;;;;12.35;9.150001;;;;;;;10.99;94.06836;94634.78;;;;
2022/09/26 05:16:30;;;;;;;12.35;9.150001;;;;;;;10.99;94.06836;94634.78;;;;
2022/09/26 05:17:31;;;;;;;12.35;9.150001;;;;;;;10.99;94.06836;94634.78;;;;
2022/09/26 05:18:32;;;;;;;12.35;9.150001;;;;;;;10.99;94.06836;94634.78;;;;
2022/09/26 05:19:33;;;;;;;13.15;9.400002;;;;;;;10.95;93.9834;94639.43;;;;
2022/09/26 05:20:33;;;;;;;13.15;9.400002;;;;;;;10.95;93.9834;94639.43;;;;
2022/09/26 05:21:34;;;;;;;13.15;9.400002;;;;;;;10.95;93.9834;94639.43;;;;
2022/09/26 05:22:35;;;;;;;13.15;9.400002;;;;;;;10.95;93.9834;94639.43;;;;
2022/09/26 05:28:49;;;;;;;13.15;9.400002;;;;;;;10.95;93.9834;94639.43;;;;
2022/09/26 05:29:54;;;;;;;13.05;10;;;;;;;10.99;94.23145;94639.15;;;;
2022/09/26 05:30:55;;;;;;;13.05;10;;;;;;;10.99;94.23145;94639.15;;;;
2022/09/26 05:31:56;;;;;;;13.05;10;;;;;;;10.99;94.23145;94639.15;;;;
2022/09/26 05:32:57;;;;;;;13.05;10;;;;;;;10.99;94.23145;94639.15;;;;
2022/09/26 05:33:57;;;;;;;13.05;10;;;;;;;10.99;94.23145;94639.15;;;;
2022/09/26 05:34:57;;;;;;;13.05;10;;;;;;;10.99;94.23145;94639.15;;;;
2022/09/26 05:35:58;;;;;;;13.05;10;;;;;;;10.99;94.23145;94639.15;;;;
2022/09/26 05:37:00;;;;;;;13.05;10;;;;;;;10.99;94.23145;94639.15;;;;
2022/09/26 05:38:01;;;;;;;13.05;10;;;;;;;10.99;94.23145;94639.15;;;;
2022/09/26 05:39:03;;;;;;;13.05;10;;;;;;;10.99;94.23145;94639.15;;;;
2022/09/26 05:41:09;;;;;;;13.05;10;;;;;;;10.99;94.23145;94639.15;;;;
2022/09/26 05:42:11;;;;;;;10.6;9.1;;;;;;;11.01;94.16699;94645.12;;;;
2022/09/26 05:43:11;;;;;;;10.6;9.1;;;;;;;11.01;94.16699;94645.12;;;;
2022/09/26 05:44:12;;;;;;;10.6;9.1;;;;;;;11.01;94.16699;94645.12;;;;
2022/09/26 05:45:14;;;;;;;10.6;9.1;;;;;;;11.01;94.16699;94645.12;;;;
2022/09/26 05:46:15;;;;;;;10.6;9.1;;;;;;;11.01;94.16699;94645.12;;;;
2022/09/26 05:47:15;;;;;;;10.6;9.1;;;;;;;11.01;94.16699;94645.12;;;;
2022/09/26 05:48:16;;;;;;;10.6;9.1;;;;;;;11.01;94.16699;94645.12;;;;
2022/09/26 05:49:16;;;;;;;10.6;9.1;;;;;;;11.01;94.16699;94645.12;;;;
2022/09/26 05:50:21;;;;;;;10.6;9.1;;;;;;;11.01;94.16699;94645.12;;;;
2022/09/26 05:51:22;;;;;;;12.3;9.05;;;;;;;11.03;94.30176;94640.42;;;;
2022/09/26 05:52:22;;;;;;;12.3;9.05;;;;;;;11.03;94.30176;94640.42;;;;
2022/09/26 05:53:24;;;;;;;12.3;9.05;;;;;;;11.03;94.30176;94640.42;;;;
2022/09/26 05:54:25;;;;;;;12.3;9.05;;;;;;;11.03;94.30176;94640.42;;;;
2022/09/26 05:55:26;;;;;;;12.3;9.05;;;;;;;11.03;94.30176;94640.42;;;;
2022/09/26 05:56:27;;;;;;;12.3;9.05;;;;;;;11.03;94.30176;94640.42;;;;